sensor_id;sensor_type;location;lat;lon;timestamp;pressure;altitude;pressure_sealevel;temperature;humidity
3464;BME280;3551;41.578;24.706;2023-07-08T00:00:16;91360.22;;;18.32;100.00
3464;BME280;3551;41.578;24.706;2023-07-08T00:02:44;91370.19;;;18.35;100.00
3464;BME280;3551;41.578;24.706;2023-07-08T00:05:13;91363.16;;;18.12;100.00
3464;BME280;3551;41.578;24.706;2023-07-08T00:07:40;91361.19;;;18.38;100.00
3464;BME280;3551;41.578;24.706;2023-07-08T00:10:12;91362.03;;;18.60;100.00
3464;BME280;3551;41.578;24.706;2023-07-08T00:12:40;91358.81;;;18.40;100.00
3464;BME280;3551;41.578;24.706;2023-07-08T00:15:07;91376.16;;;18.30;100.00
3464;BME280;3551;41.578;24.706;2023-07-08T00:17:37;91364.53;;;18.04;100.00
3464;BME280;3551;41.578;24.706;2023-07-08T00:20:15;91340.75;;;18.12;100.00
3464;BME280;3551;41.578;24.706;2023-07-08T00:22:43;91352.31;;;17.99;100.00
3464;BME280;3551;41.578;24.706;2023-07-08T00:25:12;91351.34;;;17.93;100.00
3464;BME280;3551;41.578;24.706;2023-07-08T00:27:39;91336.81;;;17.75;100.00
3464;BME280;3551;41.578;24.706;2023-07-08T00:30:25;91331.75;;;18.15;100.00
3464;BME280;3551;41.578;24.706;2023-07-08T00:32:55;91336.50;;;18.11;100.00
3464;BME280;3551;41.578;24.706;2023-07-08T00:35:24;91296.88;;;18.04;100.00
3464;BME280;3551;41.578;24.706;2023-07-08T00:37:53;91295.59;;;17.58;100.00
3464;BME280;3551;41.578;24.706;2023-07-08T00:40:28;91312.81;;;17.89;100.00
3464;BME280;3551;41.578;24.706;2023-07-08T00:42:56;91308.03;;;18.19;100.00
3464;BME280;3551;41.578;24.706;2023-07-08T00:45:32;91308.25;;;17.99;100.00
3464;BME280;3551;41.578;24.706;2023-07-08T00:48:19;91306.63;;;18.14;100.00
3464;BME280;3551;41.578;24.706;2023-07-08T00:50:50;91304.91;;;18.20;100.00
3464;BME280;3551;41.578;24.706;2023-07-08T00:53:25;91313.72;;;18.46;100.00
3464;BME280;3551;41.578;24.706;2023-07-08T00:55:55;91310.19;;;18.49;100.00
3464;BME280;3551;41.578;24.706;2023-07-08T00:58:25;91307.19;;;18.69;100.00
3464;BME280;3551;41.578;24.706;2023-07-08T01:00:55;91285.47;;;18.34;100.00
3464;BME280;3551;41.578;24.706;2023-07-08T01:03:24;91286.03;;;18.29;100.00
3464;BME280;3551;41.578;24.706;2023-07-08T01:05:53;91292.03;;;18.12;100.00
3464;BME280;3551;41.578;24.706;2023-07-08T01:08:26;91269.41;;;18.06;100.00
3464;BME280;3551;41.578;24.706;2023-07-08T01:11:00;91264.13;;;17.77;100.00
3464;BME280;3551;41.578;24.706;2023-07-08T01:13:31;91284.22;;;18.26;100.00
3464;BME280;3551;41.578;24.706;2023-07-08T01:15:59;91283.25;;;18.08;100.00
3464;BME280;3551;41.578;24.706;2023-07-08T01:18:28;91284.00;;;18.21;100.00
3464;BME280;3551;41.578;24.706;2023-07-08T01:20:55;91295.69;;;17.92;100.00
3464;BME280;3551;41.578;24.706;2023-07-08T01:23:24;91277.22;;;17.91;100.00
3464;BME280;3551;41.578;24.706;2023-07-08T01:25:51;91284.88;;;18.18;100.00
3464;BME280;3551;41.578;24.706;2023-07-08T01:28:19;91281.81;;;18.16;100.00
3464;BME280;3551;41.578;24.706;2023-07-08T01:30:48;91291.47;;;18.29;100.00
3464;BME280;3551;41.578;24.706;2023-07-08T01:33:18;91282.41;;;18.45;100.00
3464;BME280;3551;41.578;24.706;2023-07-08T01:35:47;91284.81;;;18.56;100.00
3464;BME280;3551;41.578;24.706;2023-07-08T01:38:17;91293.06;;;18.52;100.00
3464;BME280;3551;41.578;24.706;2023-07-08T01:40:51;91292.34;;;18.14;100.00
3464;BME280;3551;41.578;24.706;2023-07-08T01:43:18;91305.78;;;17.67;100.00
3464;BME280;3551;41.578;24.706;2023-07-08T01:45:46;91299.47;;;17.57;100.00
3464;BME280;3551;41.578;24.706;2023-07-08T01:48:16;91306.09;;;17.56;100.00
3464;BME280;3551;41.578;24.706;2023-07-08T01:50:47;91304.22;;;17.53;100.00
3464;BME280;3551;41.578;24.706;2023-07-08T01:53:18;91303.75;;;17.29;100.00
3464;BME280;3551;41.578;24.706;2023-07-08T01:55:45;91300.38;;;17.13;100.00
3464;BME280;3551;41.578;24.706;2023-07-08T01:58:14;91315.97;;;17.34;100.00
3464;BME280;3551;41.578;24.706;2023-07-08T02:00:41;91291.63;;;17.34;100.00
3464;BME280;3551;41.578;24.706;2023-07-08T02:03:08;91321.44;;;17.72;100.00
3464;BME280;3551;41.578;24.706;2023-07-08T02:05:36;91310.75;;;17.81;100.00
3464;BME280;3551;41.578;24.706;2023-07-08T02:08:03;91308.72;;;17.97;100.00
3464;BME280;3551;41.578;24.706;2023-07-08T02:10:30;91318.88;;;17.93;100.00
3464;BME280;3551;41.578;24.706;2023-07-08T02:12:57;91320.00;;;17.42;100.00
3464;BME280;3551;41.578;24.706;2023-07-08T02:15:26;91287.84;;;17.31;100.00
3464;BME280;3551;41.578;24.706;2023-07-08T02:17:53;91313.47;;;17.68;100.00
3464;BME280;3551;41.578;24.706;2023-07-08T02:20:20;91314.00;;;17.88;100.00
3464;BME280;3551;41.578;24.706;2023-07-08T02:22:47;91331.00;;;18.02;100.00
3464;BME280;3551;41.578;24.706;2023-07-08T02:25:15;91307.06;;;17.75;100.00
3464;BME280;3551;41.578;24.706;2023-07-08T02:27:42;91310.00;;;17.93;100.00
3464;BME280;3551;41.578;24.706;2023-07-08T02:30:10;91323.09;;;17.94;100.00
3464;BME280;3551;41.578;24.706;2023-07-08T02:32:38;91308.50;;;17.92;100.00
3464;BME280;3551;41.578;24.706;2023-07-08T02:35:06;91324.28;;;17.93;100.00
3464;BME280;3551;41.578;24.706;2023-07-08T02:37:34;91331.75;;;17.89;100.00
3464;BME280;3551;41.578;24.706;2023-07-08T02:40:01;91336.16;;;17.58;100.00
3464;BME280;3551;41.578;24.706;2023-07-08T02:42:28;91322.13;;;17.76;100.00
3464;BME280;3551;41.578;24.706;2023-07-08T02:44:55;91318.44;;;17.82;100.00
3464;BME280;3551;41.578;24.706;2023-07-08T02:47:22;91320.25;;;17.98;100.00
3464;BME280;3551;41.578;24.706;2023-07-08T02:49:50;91330.44;;;18.19;100.00
3464;BME280;3551;41.578;24.706;2023-07-08T02:52:18;91303.72;;;18.09;100.00
3464;BME280;3551;41.578;24.706;2023-07-08T02:54:45;91315.31;;;18.09;100.00
3464;BME280;3551;41.578;24.706;2023-07-08T02:57:12;91306.66;;;17.76;100.00
3464;BME280;3551;41.578;24.706;2023-07-08T02:59:39;91326.00;;;18.13;100.00
3464;BME280;3551;41.578;24.706;2023-07-08T03:02:06;91324.81;;;18.14;100.00
3464;BME280;3551;41.578;24.706;2023-07-08T03:04:33;91337.06;;;17.80;100.00
3464;BME280;3551;41.578;24.706;2023-07-08T03:07:07;91281.72;;;17.02;100.00
3464;BME280;3551;41.578;24.706;2023-07-08T03:09:37;91325.41;;;17.13;100.00
3464;BME280;3551;41.578;24.706;2023-07-08T03:12:05;91328.59;;;17.24;100.00
3464;BME280;3551;41.578;24.706;2023-07-08T03:14:32;91335.78;;;17.43;100.00
3464;BME280;3551;41.578;24.706;2023-07-08T03:16:59;91336.50;;;17.73;100.00
3464;BME280;3551;41.578;24.706;2023-07-08T03:19:26;91346.16;;;17.99;100.00
3464;BME280;3551;41.578;24.706;2023-07-08T03:21:54;91344.97;;;18.00;100.00
3464;BME280;3551;41.578;24.706;2023-07-08T03:24:22;91334.44;;;17.64;100.00
3464;BME280;3551;41.578;24.706;2023-07-08T03:26:49;91334.22;;;17.84;100.00
3464;BME280;3551;41.578;24.706;2023-07-08T03:29:19;91354.38;;;17.83;100.00
3464;BME280;3551;41.578;24.706;2023-07-08T03:31:47;91336.94;;;17.84;100.00
3464;BME280;3551;41.578;24.706;2023-07-08T03:34:15;91359.44;;;17.68;100.00
3464;BME280;3551;41.578;24.706;2023-07-08T03:36:44;91370.81;;;17.76;100.00
3464;BME280;3551;41.578;24.706;2023-07-08T03:39:14;91329.06;;;17.77;100.00
3464;BME280;3551;41.578;24.706;2023-07-08T03:41:43;91356.44;;;18.04;100.00
3464;BME280;3551;41.578;24.706;2023-07-08T03:44:10;91343.44;;;17.86;100.00
3464;BME280;3551;41.578;24.706;2023-07-08T03:46:38;91378.00;;;17.54;100.00
3464;BME280;3551;41.578;24.706;2023-07-08T03:49:05;91356.31;;;17.41;100.00
3464;BME280;3551;41.578;24.706;2023-07-08T03:51:35;91373.19;;;17.86;100.00
3464;BME280;3551;41.578;24.706;2023-07-08T03:54:02;91382.00;;;18.03;100.00
3464;BME280;3551;41.578;24.706;2023-07-08T03:56:30;91386.59;;;17.65;100.00
3464;BME280;3551;41.578;24.706;2023-07-08T03:58:58;91398.44;;;17.96;100.00
3464;BME280;3551;41.578;24.706;2023-07-08T04:01:25;91371.34;;;17.71;100.00
3464;BME280;3551;41.578;24.706;2023-07-08T04:03:54;91362.88;;;17.69;100.00
3464;BME280;3551;41.578;24.706;2023-07-08T04:06:22;91386.88;;;18.21;100.00
3464;BME280;3551;41.578;24.706;2023-07-08T04:08:50;91361.63;;;18.24;100.00
3464;BME280;3551;41.578;24.706;2023-07-08T04:11:20;91385.97;;;18.36;100.00
3464;BME280;3551;41.578;24.706;2023-07-08T04:13:48;91355.00;;;18.37;100.00
3464;BME280;3551;41.578;24.706;2023-07-08T04:16:19;91360.56;;;18.59;100.00
3464;BME280;3551;41.578;24.706;2023-07-08T04:18:48;91353.72;;;18.29;100.00
3464;BME280;3551;41.578;24.706;2023-07-08T04:21:19;91383.06;;;17.80;100.00
3464;BME280;3551;41.578;24.706;2023-07-08T04:23:46;91365.53;;;17.85;100.00
3464;BME280;3551;41.578;24.706;2023-07-08T04:26:13;91369.63;;;18.27;100.00
3464;BME280;3551;41.578;24.706;2023-07-08T04:28:41;91371.38;;;17.96;100.00
3464;BME280;3551;41.578;24.706;2023-07-08T04:31:08;91398.97;;;17.91;100.00
3464;BME280;3551;41.578;24.706;2023-07-08T04:33:36;91373.09;;;17.77;100.00
3464;BME280;3551;41.578;24.706;2023-07-08T04:36:04;91385.44;;;18.16;100.00
3464;BME280;3551;41.578;24.706;2023-07-08T04:38:31;91356.09;;;18.27;100.00
3464;BME280;3551;41.578;24.706;2023-07-08T04:41:02;91389.13;;;18.60;100.00
3464;BME280;3551;41.578;24.706;2023-07-08T04:43:29;91359.69;;;18.62;100.00
3464;BME280;3551;41.578;24.706;2023-07-08T04:45:56;91388.81;;;18.58;100.00
3464;BME280;3551;41.578;24.706;2023-07-08T04:48:24;91381.00;;;18.10;100.00
3464;BME280;3551;41.578;24.706;2023-07-08T04:50:53;91356.84;;;17.90;100.00
3464;BME280;3551;41.578;24.706;2023-07-08T04:53:20;91367.91;;;18.33;100.00
3464;BME280;3551;41.578;24.706;2023-07-08T04:55:49;91383.63;;;18.98;100.00
3464;BME280;3551;41.578;24.706;2023-07-08T04:58:18;91390.41;;;19.93;100.00
3464;BME280;3551;41.578;24.706;2023-07-08T05:00:45;91373.84;;;20.70;100.00
3464;BME280;3551;41.578;24.706;2023-07-08T05:03:13;91372.44;;;21.42;100.00
3464;BME280;3551;41.578;24.706;2023-07-08T05:05:40;91373.81;;;22.34;100.00
3464;BME280;3551;41.578;24.706;2023-07-08T05:08:08;91357.75;;;22.78;100.00
3464;BME280;3551;41.578;24.706;2023-07-08T05:10:35;91364.78;;;23.17;100.00
3464;BME280;3551;41.578;24.706;2023-07-08T05:13:03;91337.41;;;23.26;100.00
3464;BME280;3551;41.578;24.706;2023-07-08T05:15:30;91362.94;;;23.76;96.75
3464;BME280;3551;41.578;24.706;2023-07-08T05:17:57;91360.41;;;23.58;91.50
3464;BME280;3551;41.578;24.706;2023-07-08T05:20:24;91359.66;;;23.10;98.57
3464;BME280;3551;41.578;24.706;2023-07-08T05:22:51;91366.69;;;22.78;93.77
3464;BME280;3551;41.578;24.706;2023-07-08T05:25:20;91352.06;;;22.90;97.19
3464;BME280;3551;41.578;24.706;2023-07-08T05:27:47;91349.44;;;22.96;96.49
3464;BME280;3551;41.578;24.706;2023-07-08T05:30:17;91371.19;;;23.52;95.24
3464;BME280;3551;41.578;24.706;2023-07-08T05:32:45;91370.13;;;24.03;92.86
3464;BME280;3551;41.578;24.706;2023-07-08T05:35:12;91367.81;;;24.54;75.82
3464;BME280;3551;41.578;24.706;2023-07-08T05:37:39;91348.19;;;24.91;59.65
3464;BME280;3551;41.578;24.706;2023-07-08T05:40:10;91361.25;;;25.36;63.19
3464;BME280;3551;41.578;24.706;2023-07-08T05:42:38;91345.16;;;25.64;60.73
3464;BME280;3551;41.578;24.706;2023-07-08T05:45:06;91352.28;;;26.02;59.27
3464;BME280;3551;41.578;24.706;2023-07-08T05:47:33;91357.09;;;26.12;56.43
3464;BME280;3551;41.578;24.706;2023-07-08T05:50:00;91362.06;;;26.08;54.89
3464;BME280;3551;41.578;24.706;2023-07-08T05:52:26;91371.13;;;26.14;55.57
3464;BME280;3551;41.578;24.706;2023-07-08T05:54:53;91371.00;;;26.03;54.24
3464;BME280;3551;41.578;24.706;2023-07-08T05:57:21;91381.41;;;26.51;54.85
3464;BME280;3551;41.578;24.706;2023-07-08T05:59:50;91362.81;;;26.66;53.69
3464;BME280;3551;41.578;24.706;2023-07-08T06:02:19;91376.06;;;26.99;53.21
3464;BME280;3551;41.578;24.706;2023-07-08T06:04:48;91374.81;;;27.00;52.36
3464;BME280;3551;41.578;24.706;2023-07-08T06:07:15;91361.16;;;27.11;51.47
3464;BME280;3551;41.578;24.706;2023-07-08T06:09:43;91361.41;;;27.13;50.71
3464;BME280;3551;41.578;24.706;2023-07-08T06:12:10;91377.00;;;27.32;50.50
3464;BME280;3551;41.578;24.706;2023-07-08T06:14:37;91387.59;;;27.45;50.09
3464;BME280;3551;41.578;24.706;2023-07-08T06:17:06;91372.13;;;27.53;49.62
3464;BME280;3551;41.578;24.706;2023-07-08T06:19:34;91372.28;;;27.38;50.17
3464;BME280;3551;41.578;24.706;2023-07-08T06:22:01;91372.91;;;27.59;51.16
3464;BME280;3551;41.578;24.706;2023-07-08T06:24:27;91376.69;;;27.67;50.28
3464;BME280;3551;41.578;24.706;2023-07-08T06:26:54;91386.97;;;27.72;49.72
3464;BME280;3551;41.578;24.706;2023-07-08T06:29:21;91386.34;;;27.46;49.68
3464;BME280;3551;41.578;24.706;2023-07-08T06:31:48;91377.63;;;27.53;49.34
3464;BME280;3551;41.578;24.706;2023-07-08T06:34:17;91389.69;;;27.24;50.30
3464;BME280;3551;41.578;24.706;2023-07-08T06:36:44;91382.75;;;27.34;48.59
3464;BME280;3551;41.578;24.706;2023-07-08T06:39:11;91383.06;;;27.42;49.85
3464;BME280;3551;41.578;24.706;2023-07-08T06:41:38;91396.41;;;27.23;50.50
3464;BME280;3551;41.578;24.706;2023-07-08T06:44:05;91395.09;;;27.50;49.70
3464;BME280;3551;41.578;24.706;2023-07-08T06:46:33;91388.78;;;27.92;48.78
3464;BME280;3551;41.578;24.706;2023-07-08T06:49:00;91377.78;;;27.98;48.39
3464;BME280;3551;41.578;24.706;2023-07-08T06:51:28;91377.78;;;27.92;47.60
3464;BME280;3551;41.578;24.706;2023-07-08T06:53:55;91391.31;;;28.01;48.63
3464;BME280;3551;41.578;24.706;2023-07-08T06:56:22;91388.63;;;28.18;47.11
3464;BME280;3551;41.578;24.706;2023-07-08T06:58:49;91390.16;;;28.30;46.57
3464;BME280;3551;41.578;24.706;2023-07-08T07:01:16;91380.19;;;28.60;46.02
3464;BME280;3551;41.578;24.706;2023-07-08T07:03:43;91396.22;;;28.67;44.99
3464;BME280;3551;41.578;24.706;2023-07-08T07:06:10;91393.19;;;28.48;46.25
3464;BME280;3551;41.578;24.706;2023-07-08T07:08:38;91396.50;;;27.88;46.49
3464;BME280;3551;41.578;24.706;2023-07-08T07:11:06;91396.19;;;27.64;47.74
3464;BME280;3551;41.578;24.706;2023-07-08T07:13:33;91387.19;;;27.69;48.19
3464;BME280;3551;41.578;24.706;2023-07-08T07:15:59;91395.72;;;27.76;46.85
3464;BME280;3551;41.578;24.706;2023-07-08T07:18:26;91410.78;;;27.98;46.25
3464;BME280;3551;41.578;24.706;2023-07-08T07:20:54;91413.47;;;27.81;47.80
3464;BME280;3551;41.578;24.706;2023-07-08T07:23:21;91404.03;;;27.93;47.96
3464;BME280;3551;41.578;24.706;2023-07-08T07:25:49;91401.13;;;28.19;46.78
3464;BME280;3551;41.578;24.706;2023-07-08T07:28:17;91410.16;;;28.41;45.89
3464;BME280;3551;41.578;24.706;2023-07-08T07:30:45;91401.38;;;28.26;46.44
3464;BME280;3551;41.578;24.706;2023-07-08T07:33:12;91412.69;;;28.39;45.25
3464;BME280;3551;41.578;24.706;2023-07-08T07:35:43;91417.22;;;28.81;42.46
3464;BME280;3551;41.578;24.706;2023-07-08T07:38:10;91412.22;;;29.02;42.38
3464;BME280;3551;41.578;24.706;2023-07-08T07:40:39;91411.47;;;28.90;41.30
3464;BME280;3551;41.578;24.706;2023-07-08T07:43:07;91410.78;;;27.98;46.96
3464;BME280;3551;41.578;24.706;2023-07-08T07:45:35;91407.69;;;27.73;47.03
3464;BME280;3551;41.578;24.706;2023-07-08T07:48:02;91421.75;;;27.86;47.65
3464;BME280;3551;41.578;24.706;2023-07-08T07:50:30;91415.31;;;27.47;47.57
3464;BME280;3551;41.578;24.706;2023-07-08T07:52:57;91413.16;;;26.89;49.01
3464;BME280;3551;41.578;24.706;2023-07-08T07:55:23;91419.44;;;26.63;50.31
3464;BME280;3551;41.578;24.706;2023-07-08T07:57:51;91427.63;;;26.32;51.26
3464;BME280;3551;41.578;24.706;2023-07-08T08:00:21;91433.81;;;26.53;51.88
3464;BME280;3551;41.578;24.706;2023-07-08T08:02:49;91425.25;;;26.45;49.22
3464;BME280;3551;41.578;24.706;2023-07-08T08:05:16;91432.56;;;26.08;49.79
3464;BME280;3551;41.578;24.706;2023-07-08T08:07:43;91447.94;;;26.00;51.04
3464;BME280;3551;41.578;24.706;2023-07-08T08:10:10;91440.13;;;25.72;51.99
3464;BME280;3551;41.578;24.706;2023-07-08T08:12:37;91448.84;;;25.51;53.07
3464;BME280;3551;41.578;24.706;2023-07-08T08:15:04;91457.09;;;25.36;53.91
3464;BME280;3551;41.578;24.706;2023-07-08T08:17:33;91469.19;;;26.25;50.74
3464;BME280;3551;41.578;24.706;2023-07-08T08:20:00;91451.19;;;26.44;51.21
3464;BME280;3551;41.578;24.706;2023-07-08T08:22:27;91458.84;;;26.66;50.10
3464;BME280;3551;41.578;24.706;2023-07-08T08:24:54;91456.28;;;27.14;49.24
3464;BME280;3551;41.578;24.706;2023-07-08T08:27:21;91459.66;;;27.29;48.23
3464;BME280;3551;41.578;24.706;2023-07-08T08:29:48;91444.88;;;27.63;46.42
3464;BME280;3551;41.578;24.706;2023-07-08T08:32:15;91461.84;;;28.10;45.81
3464;BME280;3551;41.578;24.706;2023-07-08T08:34:43;91452.44;;;28.49;45.46
3464;BME280;3551;41.578;24.706;2023-07-08T08:37:10;91453.25;;;28.72;43.25
3464;BME280;3551;41.578;24.706;2023-07-08T08:39:37;91432.16;;;28.25;44.31
3464;BME280;3551;41.578;24.706;2023-07-08T08:42:06;91449.38;;;28.20;44.77
3464;BME280;3551;41.578;24.706;2023-07-08T08:44:37;91436.16;;;28.35;45.66
3464;BME280;3551;41.578;24.706;2023-07-08T08:47:10;91450.66;;;28.30;44.80
3464;BME280;3551;41.578;24.706;2023-07-08T08:49:46;91441.44;;;27.79;46.90
3464;BME280;3551;41.578;24.706;2023-07-08T08:52:17;91448.88;;;27.25;47.25
3464;BME280;3551;41.578;24.706;2023-07-08T08:54:44;91438.06;;;27.53;46.88
3464;BME280;3551;41.578;24.706;2023-07-08T08:57:17;91440.22;;;27.86;46.84
3464;BME280;3551;41.578;24.706;2023-07-08T08:59:52;91443.41;;;28.32;44.63
3464;BME280;3551;41.578;24.706;2023-07-08T09:02:33;91433.78;;;28.00;44.66
3464;BME280;3551;41.578;24.706;2023-07-08T09:05:05;91428.34;;;27.52;45.28
3464;BME280;3551;41.578;24.706;2023-07-08T09:07:39;91429.84;;;27.16;47.15
3464;BME280;3551;41.578;24.706;2023-07-08T09:10:15;91428.06;;;27.50;45.79
3464;BME280;3551;41.578;24.706;2023-07-08T09:12:46;91435.53;;;28.03;46.01
3464;BME280;3551;41.578;24.706;2023-07-08T09:15:15;91435.69;;;28.42;42.53
3464;BME280;3551;41.578;24.706;2023-07-08T09:17:42;91410.44;;;28.60;43.67
3464;BME280;3551;41.578;24.706;2023-07-08T09:20:20;91420.66;;;28.43;44.07
3464;BME280;3551;41.578;24.706;2023-07-08T09:22:53;91424.13;;;28.21;44.99
3464;BME280;3551;41.578;24.706;2023-07-08T09:25:26;91419.88;;;27.61;44.98
3464;BME280;3551;41.578;24.706;2023-07-08T09:27:55;91421.94;;;27.35;46.18
3464;BME280;3551;41.578;24.706;2023-07-08T09:30:23;91418.63;;;27.57;45.58
3464;BME280;3551;41.578;24.706;2023-07-08T09:32:52;91414.94;;;27.28;45.32
3464;BME280;3551;41.578;24.706;2023-07-08T09:35:22;91398.47;;;26.35;46.01
3464;BME280;3551;41.578;24.706;2023-07-08T09:37:50;91412.28;;;26.20;48.77
3464;BME280;3551;41.578;24.706;2023-07-08T09:40:28;91419.56;;;26.23;47.36
3464;BME280;3551;41.578;24.706;2023-07-08T09:43:02;91407.66;;;26.32;48.08
3464;BME280;3551;41.578;24.706;2023-07-08T09:45:40;91395.78;;;26.40;48.58
3464;BME280;3551;41.578;24.706;2023-07-08T09:48:15;91397.19;;;26.56;47.96
3464;BME280;3551;41.578;24.706;2023-07-08T09:50:51;91409.44;;;26.35;46.02
3464;BME280;3551;41.578;24.706;2023-07-08T09:53:19;91387.84;;;26.16;48.49
3464;BME280;3551;41.578;24.706;2023-07-08T09:55:46;91402.84;;;26.01;47.61
3464;BME280;3551;41.578;24.706;2023-07-08T09:58:25;91400.41;;;25.83;50.17
3464;BME280;3551;41.578;24.706;2023-07-08T10:00:55;91411.47;;;26.14;48.52
3464;BME280;3551;41.578;24.706;2023-07-08T10:03:24;91417.81;;;26.51;46.99
3464;BME280;3551;41.578;24.706;2023-07-08T10:05:55;91407.63;;;26.83;47.72
3464;BME280;3551;41.578;24.706;2023-07-08T10:08:37;91411.69;;;26.62;47.20
3464;BME280;3551;41.578;24.706;2023-07-08T10:11:12;91422.69;;;26.93;47.85
3464;BME280;3551;41.578;24.706;2023-07-08T10:13:45;91404.78;;;27.03;46.58
3464;BME280;3551;41.578;24.706;2023-07-08T10:16:21;91393.84;;;27.51;45.43
3464;BME280;3551;41.578;24.706;2023-07-08T10:18:49;91389.94;;;27.69;44.76
3464;BME280;3551;41.578;24.706;2023-07-08T10:21:26;91391.50;;;27.86;45.17
3464;BME280;3551;41.578;24.706;2023-07-08T10:24:04;91395.31;;;27.47;40.63
3464;BME280;3551;41.578;24.706;2023-07-08T10:26:38;91391.56;;;27.02;42.14
3464;BME280;3551;41.578;24.706;2023-07-08T10:29:13;91398.97;;;27.32;44.34
3464;BME280;3551;41.578;24.706;2023-07-08T10:31:50;91389.94;;;27.26;44.46
3464;BME280;3551;41.578;24.706;2023-07-08T10:34:28;91385.34;;;27.44;46.34
3464;BME280;3551;41.578;24.706;2023-07-08T10:37:04;91380.53;;;27.38;46.23
3464;BME280;3551;41.578;24.706;2023-07-08T10:39:47;91380.72;;;27.29;45.15
3464;BME280;3551;41.578;24.706;2023-07-08T10:42:34;91380.59;;;27.07;46.33
3464;BME280;3551;41.578;24.706;2023-07-08T10:45:09;91362.53;;;26.90;45.69
3464;BME280;3551;41.578;24.706;2023-07-08T10:47:56;91373.69;;;26.80;45.29
3464;BME280;3551;41.578;24.706;2023-07-08T10:50:38;91370.47;;;26.82;46.80
3464;BME280;3551;41.578;24.706;2023-07-08T10:53:21;91357.59;;;26.68;47.58
3464;BME280;3551;41.578;24.706;2023-07-08T10:55:57;91361.09;;;26.68;47.42
3464;BME280;3551;41.578;24.706;2023-07-08T10:58:43;91360.97;;;26.83;48.01
3464;BME280;3551;41.578;24.706;2023-07-08T11:01:25;91361.81;;;26.63;46.82
3464;BME280;3551;41.578;24.706;2023-07-08T11:04:23;91350.56;;;26.61;47.58
3464;BME280;3551;41.578;24.706;2023-07-08T11:06:56;91359.19;;;26.49;47.25
3464;BME280;3551;41.578;24.706;2023-07-08T11:09:28;91365.13;;;26.73;47.21
3464;BME280;3551;41.578;24.706;2023-07-08T11:12:01;91362.47;;;26.53;48.31
3464;BME280;3551;41.578;24.706;2023-07-08T11:14:36;91362.56;;;26.64;47.97
3464;BME280;3551;41.578;24.706;2023-07-08T11:17:10;91355.19;;;26.44;48.52
3464;BME280;3551;41.578;24.706;2023-07-08T11:19:47;91358.72;;;26.50;47.56
3464;BME280;3551;41.578;24.706;2023-07-08T11:22:15;91352.47;;;26.50;47.63
3464;BME280;3551;41.578;24.706;2023-07-08T11:24:46;91351.00;;;26.23;48.53
3464;BME280;3551;41.578;24.706;2023-07-08T11:27:16;91360.47;;;26.22;48.73
3464;BME280;3551;41.578;24.706;2023-07-08T11:29:53;91362.63;;;26.38;47.58
3464;BME280;3551;41.578;24.706;2023-07-08T11:32:23;91366.19;;;26.50;47.91
3464;BME280;3551;41.578;24.706;2023-07-08T11:34:52;91381.97;;;26.60;47.28
3464;BME280;3551;41.578;24.706;2023-07-08T11:37:21;91362.78;;;26.60;47.13
3464;BME280;3551;41.578;24.706;2023-07-08T11:39:57;91357.25;;;26.55;46.91
3464;BME280;3551;41.578;24.706;2023-07-08T11:42:34;91357.44;;;26.46;47.62
3464;BME280;3551;41.578;24.706;2023-07-08T11:45:07;91372.06;;;26.37;47.81
3464;BME280;3551;41.578;24.706;2023-07-08T11:47:38;91358.31;;;26.32;47.90
3464;BME280;3551;41.578;24.706;2023-07-08T11:50:14;91353.00;;;26.22;45.65
3464;BME280;3551;41.578;24.706;2023-07-08T11:52:51;91350.97;;;25.11;46.97
3464;BME280;3551;41.578;24.706;2023-07-08T11:55:26;91360.94;;;25.14;48.42
3464;BME280;3551;41.578;24.706;2023-07-08T11:57:59;91361.75;;;25.00;47.04
3464;BME280;3551;41.578;24.706;2023-07-08T12:00:30;91371.72;;;25.17;47.44
3464;BME280;3551;41.578;24.706;2023-07-08T12:03:04;91360.50;;;25.15;46.29
3464;BME280;3551;41.578;24.706;2023-07-08T12:05:43;91364.75;;;25.02;47.84
3464;BME280;3551;41.578;24.706;2023-07-08T12:08:13;91376.06;;;24.89;46.44
3464;BME280;3551;41.578;24.706;2023-07-08T12:10:47;91379.75;;;24.72;46.14
3464;BME280;3551;41.578;24.706;2023-07-08T12:13:17;91399.53;;;24.67;47.32
3464;BME280;3551;41.578;24.706;2023-07-08T12:15:44;91396.25;;;24.77;49.47
3464;BME280;3551;41.578;24.706;2023-07-08T12:18:14;91393.41;;;24.72;49.02
3464;BME280;3551;41.578;24.706;2023-07-08T12:20:45;91402.41;;;24.57;46.73
3464;BME280;3551;41.578;24.706;2023-07-08T12:23:15;91399.53;;;24.67;46.92
3464;BME280;3551;41.578;24.706;2023-07-08T12:25:43;91395.22;;;24.75;50.36
3464;BME280;3551;41.578;24.706;2023-07-08T12:28:11;91388.03;;;24.92;49.47
3464;BME280;3551;41.578;24.706;2023-07-08T12:30:39;91383.81;;;25.11;47.52
3464;BME280;3551;41.578;24.706;2023-07-08T12:33:11;91396.31;;;24.97;50.04
3464;BME280;3551;41.578;24.706;2023-07-08T12:35:40;91398.09;;;25.00;46.09
3464;BME280;3551;41.578;24.706;2023-07-08T12:38:17;91394.06;;;24.81;47.62
3464;BME280;3551;41.578;24.706;2023-07-08T12:40:46;91410.38;;;24.76;46.78
3464;BME280;3551;41.578;24.706;2023-07-08T12:43:14;91414.84;;;24.58;48.16
3464;BME280;3551;41.578;24.706;2023-07-08T12:45:42;91435.22;;;24.43;49.91
3464;BME280;3551;41.578;24.706;2023-07-08T12:48:12;91400.81;;;24.22;47.26
3464;BME280;3551;41.578;24.706;2023-07-08T12:50:42;91431.56;;;24.31;46.68
3464;BME280;3551;41.578;24.706;2023-07-08T12:53:10;91381.72;;;23.98;46.94
3464;BME280;3551;41.578;24.706;2023-07-08T12:55:39;91396.38;;;24.24;46.86
3464;BME280;3551;41.578;24.706;2023-07-08T12:58:13;91407.97;;;24.34;47.28
3464;BME280;3551;41.578;24.706;2023-07-08T13:00:40;91395.44;;;24.42;47.17
3464;BME280;3551;41.578;24.706;2023-07-08T13:03:15;91375.06;;;24.57;46.47
3464;BME280;3551;41.578;24.706;2023-07-08T13:05:44;91389.53;;;24.78;45.34
3464;BME280;3551;41.578;24.706;2023-07-08T13:08:12;91387.66;;;24.84;45.16
3464;BME280;3551;41.578;24.706;2023-07-08T13:10:40;91394.03;;;24.96;47.86
3464;BME280;3551;41.578;24.706;2023-07-08T13:13:21;91376.00;;;25.04;46.41
3464;BME280;3551;41.578;24.706;2023-07-08T13:15:59;91368.19;;;24.97;48.02
3464;BME280;3551;41.578;24.706;2023-07-08T13:18:35;91352.84;;;24.85;47.37
3464;BME280;3551;41.578;24.706;2023-07-08T13:21:04;91356.69;;;24.93;47.94